Time;durP1;ratioP1;P1;durP2;ratioP2;P2;SDS_P1;SDS_P2;PMS_P1;PMS_P2;Temp;Humidity;BMP_temperature;BMP_pressure;BME280_temperature;BME280_humidity;BME280_pressure;Samples;Min_cycle;Max_cycle;Signal;HPM_P1;HPM_P2
2023/12/22 00:01:30;;;;;;;20.07;4.43;;;4.50;99.90;;;;;;5045019;28;20108;-73
2023/12/22 00:03:56;;;;;;;14.20;3.63;;;4.50;99.90;;;;;;5051505;28;20107;-74
2023/12/22 00:06:22;;;;;;;15.63;4.17;;;4.40;99.90;;;;;;5045655;28;20056;-74
2023/12/22 00:08:48;;;;;;;20.90;4.93;;;4.50;99.90;;;;;;5046143;28;20060;-74
2023/12/22 00:11:14;;;;;;;23.20;4.90;;;4.60;99.90;;;;;;5044607;28;20053;-74
2023/12/22 00:13:39;;;;;;;19.97;4.20;;;4.60;99.90;;;;;;5043204;28;20081;-74
2023/12/22 00:16:05;;;;;;;22.23;5.10;;;4.80;99.90;;;;;;5039450;28;20078;-74
2023/12/22 00:18:31;;;;;;;18.10;4.97;;;4.90;99.90;;;;;;5044272;28;20048;-74
2023/12/22 00:20:57;;;;;;;19.67;4.90;;;5.00;99.90;;;;;;5041826;28;20154;-75
2023/12/22 00:23:23;;;;;;;23.60;4.93;;;5.00;99.90;;;;;;5037148;28;20085;-74
2023/12/22 00:25:48;;;;;;;18.93;4.50;;;5.10;99.90;;;;;;5042317;28;20092;-73
2023/12/22 00:28:14;;;;;;;20.37;4.80;;;5.30;99.90;;;;;;5041206;28;20041;-73
2023/12/22 00:30:40;;;;;;;22.03;4.93;;;5.30;99.90;;;;;;5025576;28;20196;-74
2023/12/22 00:33:06;;;;;;;12.47;4.33;;;5.40;99.90;;;;;;5040146;28;20492;-75
2023/12/22 00:35:32;;;;;;;21.27;4.33;;;5.40;99.90;;;;;;5043109;28;20051;-75
2023/12/22 00:37:58;;;;;;;18.13;4.27;;;5.50;99.90;;;;;;5026349;28;20394;-75
2023/12/22 00:40:24;;;;;;;19.80;4.87;;;5.40;99.90;;;;;;5044356;28;20119;-75
2023/12/22 00:42:49;;;;;;;19.03;4.83;;;5.50;99.90;;;;;;5042469;28;20068;-74
2023/12/22 00:45:15;;;;;;;21.07;4.43;;;5.60;99.90;;;;;;5038980;28;20041;-74
2023/12/22 00:47:41;;;;;;;15.87;3.57;;;5.70;99.90;;;;;;5043682;28;20139;-75
2023/12/22 00:50:07;;;;;;;15.37;3.83;;;5.80;99.90;;;;;;5038993;28;20554;-75
2023/12/22 00:52:33;;;;;;;20.47;4.17;;;5.80;99.90;;;;;;5045141;28;20997;-74
2023/12/22 00:54:59;;;;;;;19.20;3.87;;;5.70;99.90;;;;;;5041558;28;20080;-73
2023/12/22 00:57:25;;;;;;;14.47;3.87;;;5.40;99.90;;;;;;5037691;28;20053;-74
2023/12/22 00:59:51;;;;;;;16.10;3.77;;;5.20;99.90;;;;;;5044309;28;20155;-75
2023/12/22 01:02:17;;;;;;;19.87;4.40;;;5.10;99.90;;;;;;5044044;28;20145;-73
2023/12/22 01:04:44;;;;;;;16.50;4.90;;;5.10;99.90;;;;;;5039872;28;20359;-73
2023/12/22 01:07:11;;;;;;;20.93;4.57;;;5.00;99.90;;;;;;5040435;28;20075;-73
2023/12/22 01:09:40;;;;;;;21.33;4.43;;;5.00;99.90;;;;;;5042096;28;20132;-74
2023/12/22 01:12:06;;;;;;;19.37;4.27;;;5.00;99.90;;;;;;5041210;28;21048;-72
2023/12/22 01:14:33;;;;;;;15.73;4.00;;;5.10;99.90;;;;;;5049012;28;20065;-72
2023/12/22 01:17:01;;;;;;;17.83;4.53;;;5.20;99.90;;;;;;5044843;28;20045;-72
2023/12/22 01:19:27;;;;;;;17.33;5.03;;;5.20;99.90;;;;;;5043874;28;20094;-72
2023/12/22 01:21:53;;;;;;;20.50;5.40;;;5.10;99.90;;;;;;5042148;28;20046;-73
2023/12/22 01:24:19;;;;;;;21.00;4.90;;;5.00;99.90;;;;;;5044496;28;20131;-73
2023/12/22 01:26:44;;;;;;;15.97;5.27;;;5.00;99.90;;;;;;5036572;28;20153;-72
2023/12/22 01:29:10;;;;;;;20.43;5.10;;;4.90;99.90;;;;;;5038812;28;20076;-72
2023/12/22 01:31:36;;;;;;;24.13;6.00;;;5.00;99.90;;;;;;5045441;28;20490;-72
2023/12/22 01:34:02;;;;;;;22.83;5.13;;;5.00;99.90;;;;;;5029341;28;20056;-72
2023/12/22 01:36:28;;;;;;;19.67;5.33;;;5.10;99.90;;;;;;5044708;28;20119;-73
2023/12/22 01:38:53;;;;;;;19.53;4.27;;;5.20;99.90;;;;;;5044763;28;20056;-73
2023/12/22 01:41:19;;;;;;;20.33;5.17;;;5.30;99.90;;;;;;5037784;28;20045;-73
2023/12/22 01:43:45;;;;;;;15.33;4.53;;;5.30;99.90;;;;;;5024974;28;20112;-73
2023/12/22 01:46:12;;;;;;;17.07;4.20;;;5.30;99.90;;;;;;5019364;28;20227;-74
2023/12/22 01:48:38;;;;;;;17.17;5.27;;;5.30;99.90;;;;;;5045482;28;20053;-74
2023/12/22 01:51:06;;;;;;;16.77;3.70;;;5.30;99.90;;;;;;5057546;28;20073;-75
2023/12/22 01:53:32;;;;;;;17.90;4.30;;;5.30;99.90;;;;;;5039206;28;20045;-74
2023/12/22 01:56:01;;;;;;;15.27;4.33;;;5.30;99.90;;;;;;5046643;28;20041;-74
2023/12/22 01:58:29;;;;;;;15.17;4.10;;;5.40;99.90;;;;;;5043551;28;20099;-74
2023/12/22 02:00:55;;;;;;;16.70;4.70;;;5.40;99.90;;;;;;5045638;28;20045;-75
2023/12/22 02:03:21;;;;;;;19.43;4.83;;;5.50;99.90;;;;;;5042713;28;20554;-75
2023/12/22 02:05:47;;;;;;;19.20;4.10;;;5.60;99.90;;;;;;5048902;28;20104;-75
2023/12/22 02:08:14;;;;;;;19.90;4.30;;;5.60;99.90;;;;;;5045185;28;20170;-76
2023/12/22 02:10:40;;;;;;;19.47;4.97;;;5.50;99.90;;;;;;5043585;28;20122;-76
2023/12/22 02:13:07;;;;;;;21.53;4.40;;;5.50;99.90;;;;;;5045477;28;20075;-75
2023/12/22 02:15:33;;;;;;;19.30;5.50;;;5.50;99.90;;;;;;5038892;28;20232;-75
2023/12/22 02:18:14;;;;;;;21.17;4.83;;;5.50;99.90;;;;;;5046974;28;20045;-75
2023/12/22 02:20:40;;;;;;;18.67;5.20;;;5.60;99.90;;;;;;5042883;28;20127;-75
2023/12/22 02:23:06;;;;;;;17.80;4.43;;;5.60;99.90;;;;;;5042473;28;20052;-75
2023/12/22 02:25:32;;;;;;;22.47;5.07;;;5.60;99.90;;;;;;5047220;28;20045;-75
2023/12/22 02:28:16;;;;;;;18.47;5.17;;;5.60;99.90;;;;;;5047090;28;20045;-75
2023/12/22 02:31:03;;;;;;;16.20;4.63;;;5.70;99.90;;;;;;5046334;28;20064;-76
2023/12/22 02:33:31;;;;;;;23.50;5.43;;;5.80;99.90;;;;;;5044627;28;20041;-75
2023/12/22 02:36:04;;;;;;;18.73;4.63;;;5.80;99.90;;;;;;5046663;28;20046;-75
2023/12/22 02:38:30;;;;;;;22.77;5.07;;;5.90;99.90;;;;;;5046536;28;20106;-74
2023/12/22 02:40:57;;;;;;;17.80;3.77;;;6.00;99.90;;;;;;5028975;28;20044;-74
2023/12/22 02:43:22;;;;;;;20.57;5.23;;;5.90;99.90;;;;;;5039811;28;20045;-74
2023/12/22 02:45:51;;;;;;;20.33;4.33;;;5.80;99.90;;;;;;5041079;28;20050;-74
2023/12/22 02:48:17;;;;;;;22.37;5.20;;;5.70;99.90;;;;;;5046990;28;20136;-75
2023/12/22 02:50:43;;;;;;;19.40;4.60;;;5.60;99.90;;;;;;5045360;28;20132;-75
2023/12/22 02:53:09;;;;;;;18.70;4.67;;;5.60;99.90;;;;;;5046269;28;20059;-76
2023/12/22 02:55:34;;;;;;;23.33;4.93;;;5.60;99.90;;;;;;5044915;28;20135;-75
2023/12/22 02:58:00;;;;;;;25.10;5.17;;;5.50;99.90;;;;;;5041639;28;20052;-74
2023/12/22 03:00:26;;;;;;;20.43;5.23;;;5.50;99.90;;;;;;5044701;28;20103;-73
2023/12/22 03:02:51;;;;;;;18.13;5.07;;;5.50;99.90;;;;;;5051139;28;20121;-75
2023/12/22 03:05:17;;;;;;;24.87;5.73;;;5.50;99.90;;;;;;5044563;28;20037;-76
2023/12/22 03:07:43;;;;;;;24.40;4.53;;;5.40;99.90;;;;;;5047152;28;20037;-75
2023/12/22 03:10:09;;;;;;;20.17;4.87;;;5.60;99.90;;;;;;5046360;28;20056;-75
2023/12/22 03:12:34;;;;;;;16.00;3.70;;;5.60;99.90;;;;;;5041972;28;20119;-74
2023/12/22 03:15:00;;;;;;;16.27;3.63;;;5.60;99.90;;;;;;5039423;28;20059;-75
2023/12/22 03:17:26;;;;;;;16.70;3.97;;;5.70;99.90;;;;;;5044287;28;20053;-76
2023/12/22 03:19:51;;;;;;;9.47;2.97;;;5.60;99.90;;;;;;5039849;28;20056;-74
2023/12/22 03:22:17;;;;;;;17.87;3.73;;;5.60;99.90;;;;;;5041528;28;20049;-76
2023/12/22 03:24:44;;;;;;;21.80;3.80;;;5.60;99.90;;;;;;5039961;28;20116;-75
2023/12/22 03:27:09;;;;;;;16.63;3.70;;;5.60;99.90;;;;;;5040441;28;20630;-76
2023/12/22 03:29:35;;;;;;;17.80;4.67;;;5.60;99.90;;;;;;5044901;28;20103;-76
2023/12/22 03:32:01;;;;;;;15.47;3.13;;;5.70;99.90;;;;;;5041515;28;20422;-76
2023/12/22 03:34:27;;;;;;;12.80;3.57;;;5.70;99.90;;;;;;5045401;28;20051;-75
2023/12/22 03:36:52;;;;;;;16.70;3.67;;;5.70;99.90;;;;;;5043572;28;20092;-76
2023/12/22 03:39:18;;;;;;;14.33;3.60;;;5.70;99.90;;;;;;5041720;28;20054;-76
2023/12/22 03:41:44;;;;;;;14.60;3.00;;;5.70;99.90;;;;;;5047790;28;20045;-76
2023/12/22 03:44:10;;;;;;;11.27;3.07;;;5.80;99.90;;;;;;5045520;28;20073;-75
2023/12/22 03:46:35;;;;;;;17.07;3.73;;;5.80;99.90;;;;;;5044092;28;20071;-76
2023/12/22 03:49:01;;;;;;;12.27;3.37;;;5.80;99.90;;;;;;5040221;28;20128;-75
2023/12/22 03:51:26;;;;;;;19.13;3.50;;;5.90;99.90;;;;;;5038250;28;20365;-75
2023/12/22 03:53:52;;;;;;;12.93;2.87;;;5.90;99.90;;;;;;5040177;28;20045;-75
2023/12/22 03:56:18;;;;;;;13.17;3.00;;;5.90;99.90;;;;;;5040313;28;20045;-75
2023/12/22 03:58:44;;;;;;;17.03;3.60;;;5.90;99.90;;;;;;5041177;28;20085;-76
2023/12/22 04:01:14;;;;;;;16.80;3.70;;;5.90;99.90;;;;;;5042782;28;20625;-76
2023/12/22 04:03:40;;;;;;;15.83;3.70;;;5.90;99.90;;;;;;5045106;28;20049;-76
2023/12/22 04:06:05;;;;;;;14.33;3.53;;;5.80;99.90;;;;;;5040483;28;20624;-76
2023/12/22 04:08:31;;;;;;;14.33;3.63;;;5.80;99.90;;;;;;5043110;28;20044;-78
2023/12/22 04:10:57;;;;;;;15.87;3.43;;;5.70;99.90;;;;;;5039783;28;20495;-76
2023/12/22 04:13:23;;;;;;;14.90;4.00;;;5.60;99.90;;;;;;5042142;28;20572;-76
2023/12/22 04:15:48;;;;;;;21.87;4.90;;;5.50;99.90;;;;;;5037976;28;20501;-76
2023/12/22 04:18:14;;;;;;;19.90;3.93;;;5.50;99.90;;;;;;5049171;28;20071;-76
2023/12/22 04:20:40;;;;;;;18.37;4.13;;;5.50;99.90;;;;;;5046405;28;20044;-76
2023/12/22 04:23:05;;;;;;;17.70;4.33;;;5.40;99.90;;;;;;5044973;28;20052;-76
2023/12/22 04:25:31;;;;;;;19.03;4.70;;;5.30;99.90;;;;;;5045442;28;20106;-76
2023/12/22 04:27:57;;;;;;;24.80;4.80;;;5.40;99.90;;;;;;5039979;28;20045;-76
2023/12/22 04:30:22;;;;;;;19.50;4.60;;;5.30;99.90;;;;;;5046760;28;20041;-76
2023/12/22 04:32:48;;;;;;;19.83;4.33;;;5.30;99.90;;;;;;5044274;28;20073;-76
2023/12/22 04:35:14;;;;;;;24.43;4.80;;;5.20;99.90;;;;;;5043957;28;20049;-76
2023/12/22 04:37:39;;;;;;;20.50;4.37;;;5.30;99.90;;;;;;5039141;28;20050;-76
2023/12/22 04:40:05;;;;;;;21.97;4.97;;;5.30;99.90;;;;;;5040419;28;20727;-77
2023/12/22 04:42:32;;;;;;;24.80;4.93;;;5.30;99.90;;;;;;5041282;28;20047;-76
2023/12/22 04:44:58;;;;;;;22.43;4.63;;;5.30;99.90;;;;;;5041690;28;20038;-76
2023/12/22 04:47:24;;;;;;;22.10;4.50;;;5.40;99.90;;;;;;5026840;28;20033;-76
2023/12/22 04:49:50;;;;;;;20.30;5.00;;;5.50;99.90;;;;;;5039399;28;20053;-75
2023/12/22 04:52:15;;;;;;;23.80;5.53;;;5.60;99.90;;;;;;5039561;28;20044;-76
2023/12/22 04:54:41;;;;;;;24.57;5.50;;;5.60;99.90;;;;;;5037590;28;20145;-75
2023/12/22 04:57:07;;;;;;;22.50;5.20;;;5.70;99.90;;;;;;5034675;28;20130;-76
2023/12/22 04:59:32;;;;;;;19.13;5.10;;;5.80;99.90;;;;;;5049055;28;20041;-76
2023/12/22 05:01:58;;;;;;;21.73;4.87;;;5.90;99.90;;;;;;5046545;28;20542;-75
2023/12/22 05:04:24;;;;;;;20.40;5.03;;;5.90;99.90;;;;;;5044882;28;20120;-76
2023/12/22 05:06:49;;;;;;;17.67;5.07;;;6.00;99.90;;;;;;5041099;28;20424;-76
2023/12/22 05:09:16;;;;;;;18.40;4.10;;;6.00;99.90;;;;;;5028843;28;20053;-76
2023/12/22 05:11:42;;;;;;;23.73;5.20;;;6.10;99.90;;;;;;5042944;28;20076;-76
2023/12/22 05:14:07;;;;;;;16.60;4.40;;;6.10;99.90;;;;;;5028976;28;20468;-76
2023/12/22 05:16:33;;;;;;;22.17;5.03;;;6.10;99.90;;;;;;5043059;28;20049;-75
2023/12/22 05:18:59;;;;;;;25.60;4.73;;;6.20;99.90;;;;;;5040249;28;20033;-76
2023/12/22 05:21:25;;;;;;;20.80;5.07;;;6.30;99.90;;;;;;5039597;28;20110;-76
2023/12/22 05:23:51;;;;;;;25.13;4.70;;;6.30;99.90;;;;;;5038134;28;20052;-76
2023/12/22 05:26:18;;;;;;;21.67;4.60;;;6.30;99.90;;;;;;5032843;28;20179;-76
2023/12/22 05:28:44;;;;;;;21.60;5.17;;;6.40;99.90;;;;;;5036907;28;20048;-76
2023/12/22 05:31:09;;;;;;;21.83;5.10;;;6.40;99.90;;;;;;5044879;28;20046;-77
2023/12/22 05:33:35;;;;;;;18.70;4.70;;;6.50;99.90;;;;;;5049603;28;20421;-76
2023/12/22 05:36:01;;;;;;;24.33;4.60;;;6.60;99.90;;;;;;5050249;28;20101;-76
2023/12/22 05:38:26;;;;;;;18.77;4.77;;;6.60;99.90;;;;;;5043890;28;20041;-76
2023/12/22 05:40:52;;;;;;;21.80;4.63;;;6.60;99.90;;;;;;5040483;28;20066;-77
2023/12/22 05:43:18;;;;;;;20.97;4.53;;;6.70;99.90;;;;;;5045490;28;20641;-77
2023/12/22 05:45:43;;;;;;;18.77;4.13;;;6.70;99.90;;;;;;5043014;28;20038;-77
2023/12/22 05:48:09;;;;;;;17.90;5.00;;;6.70;99.90;;;;;;5045400;28;20038;-77
2023/12/22 05:50:35;;;;;;;19.33;4.23;;;6.70;99.90;;;;;;5045813;28;20045;-77
2023/12/22 05:53:00;;;;;;;18.63;4.70;;;6.70;99.90;;;;;;5044378;28;20060;-76
2023/12/22 05:55:26;;;;;;;18.40;4.40;;;6.80;99.90;;;;;;5044578;28;20049;-75
2023/12/22 05:57:53;;;;;;;19.27;4.17;;;6.70;99.90;;;;;;5026818;28;20073;-75
2023/12/22 06:00:19;;;;;;;22.03;4.93;;;6.70;99.90;;;;;;5045335;28;20100;-76
2023/12/22 06:02:45;;;;;;;18.27;4.57;;;6.70;99.90;;;;;;5040847;28;20077;-75
2023/12/22 06:05:10;;;;;;;19.60;4.43;;;6.70;99.90;;;;;;5043602;28;20111;-76
2023/12/22 06:07:36;;;;;;;21.93;4.83;;;6.70;99.90;;;;;;5043286;28;20048;-76
2023/12/22 06:10:02;;;;;;;24.50;5.17;;;6.60;99.90;;;;;;5054851;28;20037;-75
2023/12/22 06:12:28;;;;;;;21.70;4.47;;;6.70;99.90;;;;;;5048843;28;20049;-76
2023/12/22 06:14:53;;;;;;;18.87;4.83;;;6.70;99.90;;;;;;5046284;28;20046;-76
2023/12/22 06:17:19;;;;;;;18.60;4.77;;;6.70;99.90;;;;;;5048698;28;20048;-76
2023/12/22 06:19:45;;;;;;;20.30;4.13;;;6.70;99.90;;;;;;5041481;28;20060;-76
2023/12/22 06:22:10;;;;;;;21.13;4.13;;;6.70;99.90;;;;;;5052303;28;20102;-77
2023/12/22 06:24:36;;;;;;;16.70;4.30;;;6.80;99.90;;;;;;5024920;28;20156;-76
2023/12/22 06:27:02;;;;;;;17.13;4.23;;;6.80;99.90;;;;;;5042348;28;20045;-77
2023/12/22 06:29:27;;;;;;;15.77;3.90;;;6.80;99.90;;;;;;5024315;28;20072;-76
2023/12/22 06:31:53;;;;;;;21.47;4.13;;;6.90;99.90;;;;;;5045954;28;20052;-75
2023/12/22 06:34:19;;;;;;;18.37;4.93;;;6.80;99.90;;;;;;5039730;28;20091;-75
2023/12/22 06:36:45;;;;;;;19.93;3.50;;;6.90;99.90;;;;;;5043030;28;20488;-75
2023/12/22 06:39:10;;;;;;;20.97;4.73;;;6.90;99.90;;;;;;5041458;28;20037;-75
2023/12/22 06:41:36;;;;;;;19.77;4.00;;;6.80;99.90;;;;;;5045121;28;20052;-74
2023/12/22 06:44:02;;;;;;;17.47;3.93;;;6.80;99.90;;;;;;5040335;28;20053;-73
2023/12/22 06:46:28;;;;;;;14.50;4.27;;;6.70;99.90;;;;;;5045625;28;20044;-73
2023/12/22 06:48:55;;;;;;;14.30;3.53;;;6.70;99.90;;;;;;5052780;28;20048;-73
2023/12/22 06:51:23;;;;;;;20.00;4.00;;;6.80;99.90;;;;;;5043295;28;20320;-74
2023/12/22 06:57:30;;;;;;;16.57;3.83;;;6.90;99.90;;;;;;5059702;22;20064;-80
2023/12/22 06:59:56;;;;;;;20.60;3.43;;;6.80;99.90;;;;;;5032490;28;20187;-80
2023/12/22 07:02:22;;;;;;;16.10;3.90;;;6.90;99.90;;;;;;4982663;28;20571;-81
2023/12/22 07:07:13;;;;;;;13.67;3.20;;;6.80;99.90;;;;;;5100424;22;20143;-75
2023/12/22 07:09:39;;;;;;;17.17;3.93;;;6.90;99.90;;;;;;5096657;28;20094;-75
2023/12/22 07:12:05;;;;;;;16.33;3.70;;;6.80;99.90;;;;;;5104647;28;20125;-75
2023/12/22 07:14:31;;;;;;;18.10;3.87;;;6.80;99.90;;;;;;5101780;28;20040;-75
2023/12/22 07:16:58;;;;;;;19.83;4.00;;;6.80;99.90;;;;;;5098376;28;20490;-75
2023/12/22 07:19:23;;;;;;;15.50;3.67;;;6.80;99.90;;;;;;5089709;28;20076;-74
2023/12/22 07:21:49;;;;;;;18.20;3.50;;;6.80;99.90;;;;;;5096444;28;20448;-75
2023/12/22 07:24:15;;;;;;;15.67;3.90;;;6.80;99.90;;;;;;5097136;28;20072;-73
2023/12/22 07:26:41;;;;;;;13.70;3.57;;;6.80;99.90;;;;;;5097893;28;20076;-75
2023/12/22 07:29:07;;;;;;;11.43;3.70;;;6.80;99.90;;;;;;5095882;28;20043;-75
2023/12/22 07:31:33;;;;;;;16.10;3.87;;;6.80;99.90;;;;;;5077915;28;20036;-76
2023/12/22 07:33:59;;;;;;;16.23;4.20;;;6.80;99.90;;;;;;5096744;28;20067;-76
2023/12/22 07:36:24;;;;;;;16.03;3.40;;;6.80;99.90;;;;;;5099552;28;20067;-75
2023/12/22 07:38:50;;;;;;;15.47;3.57;;;6.90;99.90;;;;;;5101927;28;20032;-75
2023/12/22 07:41:16;;;;;;;17.33;3.77;;;6.90;99.90;;;;;;5108066;28;20123;-75
2023/12/22 07:43:42;;;;;;;19.60;4.03;;;6.90;99.90;;;;;;5068126;28;20039;-76
2023/12/22 07:46:09;;;;;;;17.43;3.50;;;6.90;99.90;;;;;;5101344;28;20031;-75
2023/12/22 07:48:34;;;;;;;15.20;4.00;;;6.90;99.90;;;;;;5102496;28;20124;-75
2023/12/22 07:51:00;;;;;;;17.83;3.93;;;6.90;99.90;;;;;;5095281;28;20043;-76
2023/12/22 07:53:26;;;;;;;16.10;4.03;;;6.90;99.90;;;;;;5094873;28;20040;-76
2023/12/22 07:55:52;;;;;;;14.50;3.50;;;6.90;99.90;;;;;;5094584;28;20095;-76
2023/12/22 07:58:17;;;;;;;12.77;3.60;;;6.80;99.90;;;;;;5092476;28;20046;-75
2023/12/22 08:00:43;;;;;;;11.53;3.23;;;6.90;99.90;;;;;;5098244;28;20544;-76
2023/12/22 08:03:09;;;;;;;16.10;3.70;;;6.90;99.90;;;;;;5102218;28;20173;-74
2023/12/22 08:05:35;;;;;;;17.90;3.57;;;6.80;99.90;;;;;;5079522;28;20074;-78
2023/12/22 08:08:01;;;;;;;15.40;4.13;;;6.80;99.90;;;;;;5061968;28;20056;-77
2023/12/22 08:10:27;;;;;;;15.70;3.90;;;6.70;99.90;;;;;;5093124;28;20073;-80
2023/12/22 08:12:53;;;;;;;16.07;3.60;;;6.70;99.90;;;;;;5092981;28;20043;-76
2023/12/22 08:15:19;;;;;;;16.03;3.60;;;6.70;99.90;;;;;;5089847;28;20048;-77
2023/12/22 08:17:51;;;;;;;17.73;4.27;;;6.70;99.90;;;;;;5089634;28;20060;-75
2023/12/22 08:20:21;;;;;;;19.20;4.20;;;6.80;99.90;;;;;;5093900;28;20086;-77
2023/12/22 08:22:51;;;;;;;14.97;3.97;;;6.80;99.90;;;;;;5095175;28;20047;-77
2023/12/22 08:25:25;;;;;;;18.73;3.57;;;6.80;99.90;;;;;;5092060;28;20055;-77
2023/12/22 08:27:51;;;;;;;16.60;4.00;;;6.80;99.90;;;;;;5094012;28;20055;-76
2023/12/22 08:30:17;;;;;;;18.27;3.43;;;6.80;99.90;;;;;;5090299;28;20040;-77
2023/12/22 08:32:43;;;;;;;10.63;3.47;;;6.80;99.90;;;;;;5093560;28;20054;-77
2023/12/22 08:35:09;;;;;;;14.23;3.57;;;6.80;99.90;;;;;;5086208;28;20110;-80
2023/12/22 08:37:34;;;;;;;19.73;4.17;;;6.80;99.90;;;;;;5058579;28;20172;-76
2023/12/22 08:40:00;;;;;;;22.37;3.70;;;6.80;99.90;;;;;;5094355;28;20044;-75
2023/12/22 08:42:28;;;;;;;17.33;4.07;;;6.80;99.90;;;;;;5093919;28;20135;-76
2023/12/22 08:44:54;;;;;;;11.87;3.90;;;6.90;99.90;;;;;;5095101;28;20525;-74
2023/12/22 08:47:20;;;;;;;22.30;4.33;;;6.90;99.90;;;;;;5094494;28;20048;-76
2023/12/22 08:49:45;;;;;;;17.50;3.90;;;6.80;99.90;;;;;;5095420;28;20625;-76
2023/12/22 08:52:11;;;;;;;16.03;3.83;;;6.70;99.90;;;;;;5075810;28;20040;-76
2023/12/22 08:54:37;;;;;;;12.97;3.57;;;6.70;99.90;;;;;;5094873;28;20060;-76
2023/12/22 08:57:03;;;;;;;18.40;3.50;;;6.70;99.90;;;;;;5094876;28;20090;-76
2023/12/22 08:59:28;;;;;;;17.00;3.90;;;6.70;99.90;;;;;;5076582;28;20130;-76
2023/12/22 09:01:55;;;;;;;10.47;2.60;;;6.70;99.90;;;;;;5096709;28;20063;-76
2023/12/22 09:04:22;;;;;;;14.57;2.47;;;6.70;99.90;;;;;;5075619;28;20056;-76
2023/12/22 09:06:49;;;;;;;14.40;3.03;;;6.70;99.90;;;;;;5077817;28;20052;-76
2023/12/22 09:09:15;;;;;;;14.77;3.20;;;6.70;99.90;;;;;;5095915;28;20048;-76
2023/12/22 09:11:40;;;;;;;9.37;2.40;;;6.70;99.90;;;;;;5097780;28;20481;-76
2023/12/22 09:14:09;;;;;;;7.87;2.10;;;6.80;99.90;;;;;;5099273;28;20108;-76
2023/12/22 09:16:36;;;;;;;8.77;2.43;;;6.80;99.90;;;;;;5099382;28;20081;-76
2023/12/22 09:19:02;;;;;;;10.37;2.27;;;6.80;99.90;;;;;;5096921;28;20043;-76
2023/12/22 09:21:28;;;;;;;5.83;1.60;;;6.90;99.90;;;;;;5089315;28;20131;-76
2023/12/22 09:23:54;;;;;;;5.53;1.60;;;7.00;99.90;;;;;;5092126;28;20048;-76
2023/12/22 09:26:19;;;;;;;7.03;1.73;;;7.00;99.90;;;;;;5072179;28;20450;-76
2023/12/22 09:28:46;;;;;;;4.23;1.23;;;7.00;99.90;;;;;;5095281;28;20052;-76
2023/12/22 09:31:15;;;;;;;6.13;1.33;;;7.10;99.90;;;;;;5092547;28;20058;-76
2023/12/22 09:33:42;;;;;;;7.17;1.50;;;7.10;99.90;;;;;;5090742;28;20051;-76
2023/12/22 09:36:08;;;;;;;4.73;1.50;;;7.10;99.90;;;;;;5094402;28;20058;-76
2023/12/22 09:38:34;;;;;;;7.20;1.40;;;7.10;99.90;;;;;;5089683;28;20036;-76
2023/12/22 09:41:01;;;;;;;7.53;1.33;;;7.10;99.90;;;;;;5095202;28;20040;-75
2023/12/22 09:43:26;;;;;;;6.40;1.30;;;7.10;99.90;;;;;;5092715;28;20048;-75
2023/12/22 09:45:52;;;;;;;5.37;1.40;;;7.10;99.90;;;;;;5094926;28;20048;-75
2023/12/22 09:48:26;;;;;;;6.97;1.53;;;7.10;99.90;;;;;;5074016;28;20040;-76
2023/12/22 09:50:52;;;;;;;6.80;1.60;;;7.10;99.90;;;;;;5076263;28;20044;-75
2023/12/22 09:53:20;;;;;;;7.17;1.70;;;7.10;99.90;;;;;;5094762;28;20039;-75
2023/12/22 09:55:47;;;;;;;7.73;1.57;;;7.00;99.90;;;;;;5091421;28;20040;-75
2023/12/22 09:58:14;;;;;;;7.03;1.53;;;7.10;99.90;;;;;;5092243;28;20111;-75
2023/12/22 10:00:41;;;;;;;6.47;1.80;;;7.10;99.90;;;;;;5071564;28;20052;-75
2023/12/22 10:03:08;;;;;;;11.27;1.70;;;7.00;99.90;;;;;;5092385;28;20040;-75
2023/12/22 10:05:34;;;;;;;6.93;1.97;;;7.00;99.90;;;;;;5093593;28;20063;-76
2023/12/22 10:08:01;;;;;;;7.40;2.17;;;7.10;99.90;;;;;;5092427;28;20177;-75
2023/12/22 10:10:30;;;;;;;6.10;1.77;;;7.10;99.90;;;;;;5094124;28;20074;-76
2023/12/22 10:12:58;;;;;;;7.00;2.20;;;7.00;99.90;;;;;;5087728;28;20089;-76
2023/12/22 10:15:24;;;;;;;9.93;1.87;;;7.10;99.90;;;;;;5085797;28;20055;-74
2023/12/22 10:17:51;;;;;;;7.30;1.80;;;7.10;99.90;;;;;;5075151;28;20043;-76
2023/12/22 10:20:17;;;;;;;7.43;1.90;;;7.10;99.90;;;;;;5079628;28;20058;-76
2023/12/22 10:22:43;;;;;;;8.57;2.00;;;7.00;99.90;;;;;;5095206;28;20040;-76
2023/12/22 10:25:09;;;;;;;9.97;2.10;;;7.10;99.90;;;;;;5097405;28;20044;-76
2023/12/22 10:27:38;;;;;;;10.43;2.00;;;7.10;99.90;;;;;;5096694;28;20063;-76
2023/12/22 10:30:04;;;;;;;8.50;2.37;;;7.00;99.90;;;;;;5091768;28;20117;-75
2023/12/22 10:32:30;;;;;;;9.90;2.40;;;7.10;99.90;;;;;;5093930;28;20386;-75
2023/12/22 10:34:59;;;;;;;15.50;2.90;;;7.10;99.90;;;;;;5091215;28;20108;-76
2023/12/22 10:37:25;;;;;;;7.00;2.33;;;7.10;99.90;;;;;;5091255;28;20407;-75
2023/12/22 10:39:54;;;;;;;10.10;2.47;;;7.10;99.90;;;;;;5092068;28;20044;-75
2023/12/22 10:42:20;;;;;;;8.47;2.20;;;7.10;99.90;;;;;;5068428;28;20127;-75
2023/12/22 10:44:47;;;;;;;8.13;2.43;;;7.00;99.90;;;;;;5080346;28;20090;-76
2023/12/22 10:47:13;;;;;;;10.73;2.70;;;7.10;99.90;;;;;;5096397;28;20040;-75
2023/12/22 10:49:39;;;;;;;10.37;2.73;;;7.10;99.90;;;;;;5093274;28;20079;-76
2023/12/22 10:52:05;;;;;;;13.73;2.60;;;7.10;99.90;;;;;;5095422;28;20063;-76
2023/12/22 10:54:31;;;;;;;11.00;2.47;;;7.20;99.90;;;;;;5095795;28;20039;-76
2023/12/22 10:57:00;;;;;;;12.07;2.67;;;7.10;99.90;;;;;;5097328;28;20060;-78
2023/12/22 10:59:30;;;;;;;14.83;3.13;;;7.10;99.90;;;;;;5095910;28;20036;-75
2023/12/22 11:01:58;;;;;;;8.47;2.40;;;7.20;99.90;;;;;;5098112;28;20103;-76
2023/12/22 11:04:34;;;;;;;11.67;2.60;;;7.20;99.90;;;;;;5092949;28;20101;-76
2023/12/22 11:07:03;;;;;;;15.90;2.83;;;7.20;99.90;;;;;;5092304;28;20063;-78
2023/12/22 11:09:35;;;;;;;14.37;2.57;;;7.30;99.90;;;;;;5097794;28;20437;-77
2023/12/22 11:12:02;;;;;;;13.37;3.07;;;7.30;99.90;;;;;;5102786;28;20031;-77
2023/12/22 11:14:30;;;;;;;17.93;3.40;;;7.30;99.90;;;;;;5084412;28;20067;-76
2023/12/22 11:16:59;;;;;;;10.47;3.53;;;7.30;99.90;;;;;;5075492;28;20763;-78
2023/12/22 11:19:26;;;;;;;16.37;3.27;;;7.30;99.90;;;;;;5095606;28;20040;-77
2023/12/22 11:21:54;;;;;;;11.47;2.50;;;7.30;99.90;;;;;;5094268;28;20506;-78
2023/12/22 11:24:21;;;;;;;13.47;3.40;;;7.30;99.90;;;;;;5092076;28;20048;-77
2023/12/22 11:26:49;;;;;;;10.00;2.80;;;7.40;99.90;;;;;;5091779;28;20044;-78
2023/12/22 11:29:18;;;;;;;12.20;2.80;;;7.40;99.90;;;;;;5092061;28;20058;-77
2023/12/22 11:31:47;;;;;;;13.27;2.67;;;7.40;99.90;;;;;;5077897;28;20048;-77
2023/12/22 11:34:15;;;;;;;12.37;3.33;;;7.40;99.90;;;;;;5098377;28;20048;-77
2023/12/22 11:36:45;;;;;;;16.90;3.33;;;7.40;99.90;;;;;;5084947;28;20541;-77
2023/12/22 11:39:14;;;;;;;17.67;3.23;;;7.40;99.90;;;;;;5077267;28;20081;-76
2023/12/22 11:41:40;;;;;;;12.47;2.90;;;7.40;99.90;;;;;;5061725;28;20048;-77
2023/12/22 11:44:07;;;;;;;14.27;2.90;;;7.40;99.90;;;;;;5074927;28;20589;-77
2023/12/22 11:46:33;;;;;;;15.77;3.07;;;7.40;99.90;;;;;;5072584;28;20040;-78
2023/12/22 11:48:59;;;;;;;14.50;3.53;;;7.50;99.90;;;;;;5079515;28;20066;-78
2023/12/22 11:51:31;;;;;;;14.27;2.90;;;7.50;99.90;;;;;;5061032;28;20052;-77
2023/12/22 11:53:57;;;;;;;12.07;2.90;;;7.40;99.90;;;;;;5083187;28;20589;-77
2023/12/22 11:56:24;;;;;;;12.73;2.97;;;7.50;99.90;;;;;;5080151;28;20074;-77
2023/12/22 11:58:54;;;;;;;9.30;2.37;;;7.50;99.90;;;;;;5078365;28;20055;-77
2023/12/22 12:01:24;;;;;;;12.43;2.83;;;7.50;99.90;;;;;;5078752;28;20067;-76
2023/12/22 12:04:05;;;;;;;15.10;3.00;;;7.50;99.90;;;;;;5073347;28;20052;-78
2023/12/22 12:06:33;;;;;;;9.13;2.30;;;7.50;99.90;;;;;;5076728;28;20065;-77
2023/12/22 12:09:05;;;;;;;9.30;2.40;;;7.60;99.90;;;;;;5074782;28;20633;-77
2023/12/22 12:11:54;;;;;;;9.88;2.50;;;7.50;99.90;;;;;;5062435;28;20048;-78
2023/12/22 12:14:31;;;;;;;13.20;2.90;;;7.50;99.90;;;;;;5072936;28;20058;-77
2023/12/22 12:17:07;;;;;;;13.63;2.80;;;7.60;99.90;;;;;;5069130;28;20630;-78
2023/12/22 12:19:34;;;;;;;7.17;2.57;;;7.60;99.90;;;;;;5078364;28;20059;-77
2023/12/22 12:22:01;;;;;;;8.47;2.00;;;7.60;99.90;;;;;;5075211;28;20048;-79
2023/12/22 12:24:27;;;;;;;9.37;2.67;;;7.60;99.90;;;;;;5073394;28;20048;-77
2023/12/22 12:26:52;;;;;;;10.33;2.77;;;7.60;99.90;;;;;;5074385;28;20044;-77
2023/12/22 12:29:20;;;;;;;8.70;2.80;;;7.60;99.90;;;;;;5043865;28;20291;-78
2023/12/22 12:31:46;;;;;;;11.93;2.40;;;7.60;99.90;;;;;;5074453;28;20052;-78
2023/12/22 12:34:14;;;;;;;6.20;2.23;;;7.60;99.90;;;;;;5071112;28;20472;-78
2023/12/22 12:36:40;;;;;;;12.80;2.63;;;7.60;99.90;;;;;;5077843;28;20048;-78
2023/12/22 12:39:07;;;;;;;11.87;2.60;;;7.60;99.90;;;;;;5072282;28;20455;-76
2023/12/22 12:41:39;;;;;;;11.97;2.30;;;7.60;99.90;;;;;;5074048;28;20041;-77
2023/12/22 12:44:06;;;;;;;12.32;2.50;;;7.60;99.90;;;;;;5073706;28;20666;-77
2023/12/22 12:46:38;;;;;;;9.30;2.40;;;7.70;99.90;;;;;;5071488;28;20040;-78
2023/12/22 12:49:11;;;;;;;17.13;2.90;;;7.70;99.90;;;;;;5072344;28;20048;-77
2023/12/22 12:51:42;;;;;;;12.30;2.37;;;7.70;99.90;;;;;;5075796;28;20046;-78